createdAt,value
2022-09-20T00:01:23.206Z,70.70
2022-09-20T00:03:56.173Z,70.74
2022-09-20T00:06:29.245Z,70.74
2022-09-20T00:08:56.643Z,70.79
2022-09-20T00:11:26.153Z,70.76
2022-09-20T00:13:55.992Z,70.99
2022-09-20T00:16:28.724Z,70.86
2022-09-20T00:18:57.684Z,70.84
2022-09-20T00:21:27.414Z,70.89
2022-09-20T00:23:54.908Z,70.86
2022-09-20T00:26:21.779Z,71.01
2022-09-20T00:28:48.193Z,70.98
2022-09-20T00:31:15.197Z,70.85
2022-09-20T00:34:00.036Z,70.72
2022-09-20T00:36:29.686Z,70.79
2022-09-20T00:38:57.989Z,70.95
2022-09-20T00:41:25.042Z,71.39
2022-09-20T00:43:52.292Z,70.96
2022-09-20T00:46:43.119Z,70.63
2022-09-20T00:49:17.825Z,70.96
2022-09-20T00:51:48.944Z,70.93
2022-09-20T00:54:20.502Z,70.90
2022-09-20T00:56:48.209Z,71.14
2022-09-20T00:59:18.815Z,70.98
2022-09-20T01:01:49.535Z,71.02
2022-09-20T01:04:16.810Z,70.98
2022-09-20T01:06:45.525Z,70.99
2022-09-20T01:09:12.132Z,71.01
2022-09-20T01:11:40.948Z,70.89
2022-09-20T01:14:08.097Z,71.05
2022-09-20T01:16:36.550Z,71.03
2022-09-20T01:19:15.063Z,71.04
2022-09-20T01:21:41.656Z,71.04
2022-09-20T01:24:19.040Z,71.05
2022-09-20T01:27:06.658Z,70.80
2022-09-20T01:29:52.666Z,71.07
2022-09-20T01:32:24.410Z,71.00
2022-09-20T01:34:58.833Z,71.05
2022-09-20T01:37:38.375Z,71.08
2022-09-20T01:40:24.655Z,71.00
2022-09-20T01:43:08.072Z,71.16
2022-09-20T01:45:34.681Z,71.12
2022-09-20T01:48:35.657Z,71.13
2022-09-20T01:51:28.765Z,70.91
2022-09-20T01:54:13.863Z,71.16
2022-09-20T01:57:17.928Z,71.08
2022-09-20T01:59:55.322Z,71.14
2022-09-20T02:02:40.594Z,70.97
2022-09-20T02:05:23.161Z,71.23
2022-09-20T02:08:07.776Z,71.04
2022-09-20T02:10:58.943Z,71.14
2022-09-20T02:13:40.647Z,71.04
2022-09-20T02:16:41.792Z,71.11
2022-09-20T02:19:30.609Z,71.26
2022-09-20T02:22:34.353Z,71.33
2022-09-20T02:25:17.861Z,71.34
2022-09-20T02:28:01.993Z,71.15
2022-09-20T02:30:50.382Z,71.29
2022-09-20T02:34:18.819Z,71.23
2022-09-20T02:37:16.162Z,71.40
2022-09-20T02:40:05.401Z,71.18
2022-09-20T02:42:42.549Z,71.24
2022-09-20T02:45:17.830Z,71.46
2022-09-20T02:47:44.407Z,71.51
2022-09-20T02:50:35.181Z,71.54
2022-09-20T02:53:22.013Z,71.44
2022-09-20T02:56:17.576Z,71.55
2022-09-20T02:59:03.447Z,71.52
2022-09-20T03:02:04.603Z,71.32
2022-09-20T03:05:00.631Z,71.63
2022-09-20T03:07:41.453Z,71.57
2022-09-20T03:10:40.079Z,71.42
2022-09-20T03:13:22.685Z,71.49
2022-09-20T03:15:49.201Z,71.57
2022-09-20T03:18:19.446Z,71.65
2022-09-20T03:21:06.564Z,71.37
2022-09-20T03:23:46.966Z,71.72
2022-09-20T03:26:46.792Z,71.64
2022-09-20T03:29:31.417Z,71.70
2022-09-20T03:32:15.304Z,71.75
2022-09-20T03:35:16.903Z,71.70
2022-09-20T03:38:17.794Z,71.58
2022-09-20T03:41:05.192Z,71.74
2022-09-20T03:44:05.436Z,71.82
2022-09-20T03:46:45.148Z,71.67
2022-09-20T03:49:50.973Z,71.74
2022-09-20T03:52:42.329Z,71.75
2022-09-20T03:55:22.632Z,71.88
2022-09-20T03:58:17.076Z,71.75
2022-09-20T04:01:03.073Z,71.83
2022-09-20T04:04:00.273Z,71.88
2022-09-20T04:06:54.254Z,71.96
2022-09-20T04:10:01.010Z,71.58
2022-09-20T04:12:50.262Z,71.82
2022-09-20T04:15:31.050Z,72.05
2022-09-20T04:18:19.782Z,71.97
2022-09-20T04:21:03.874Z,71.87
2022-09-20T04:23:42.700Z,71.87
2022-09-20T04:26:09.246Z,72.06
2022-09-20T04:29:01.928Z,71.92
2022-09-20T04:32:00.641Z,72.10
2022-09-20T04:35:05.808Z,71.75
2022-09-20T04:37:34.179Z,71.96
2022-09-20T04:40:13.393Z,71.93
2022-09-20T04:43:10.374Z,71.96
2022-09-20T04:45:58.282Z,72.04
2022-09-20T04:48:42.295Z,71.79
2022-09-20T04:51:33.741Z,71.81
2022-09-20T04:54:22.142Z,71.97
2022-09-20T04:57:05.651Z,71.97
2022-09-20T04:59:57.593Z,71.93
2022-09-20T05:02:40.016Z,72.16
2022-09-20T05:05:28.526Z,72.08
2022-09-20T05:08:26.988Z,72.13
2022-09-20T05:11:12.240Z,72.19
2022-09-20T05:14:17.017Z,72.20
2022-09-20T05:17:07.857Z,72.21
2022-09-20T05:19:58.488Z,72.26
2022-09-20T05:23:27.673Z,72.35
2022-09-20T05:26:24.778Z,72.40
2022-09-20T05:29:24.507Z,72.40
2022-09-20T05:32:08.545Z,72.31
2022-09-20T05:34:53.733Z,72.32
2022-09-20T05:37:38.934Z,72.36
2022-09-20T05:40:16.233Z,72.44
2022-09-20T05:42:55.128Z,72.34
2022-09-20T05:45:49.849Z,72.33
2022-09-20T05:48:34.808Z,72.52
2022-09-20T05:51:47.241Z,72.40
2022-09-20T05:54:32.130Z,72.40
2022-09-20T05:57:20.431Z,72.49
2022-09-20T06:00:02.840Z,72.52
2022-09-20T06:02:56.842Z,72.62
2022-09-20T06:05:49.644Z,72.51
2022-09-20T06:08:23.383Z,72.56
2022-09-20T06:11:13.191Z,72.57
2022-09-20T06:13:45.658Z,72.64
2022-09-20T06:16:42.261Z,72.62
2022-09-20T06:19:31.893Z,72.59
2022-09-20T06:22:25.579Z,72.57
2022-09-20T06:25:02.003Z,72.59
2022-09-20T06:27:35.646Z,72.77
2022-09-20T06:30:06.370Z,72.90
2022-09-20T06:32:34.609Z,72.89
2022-09-20T06:35:02.702Z,72.96
2022-09-20T06:38:07.761Z,73.16
2022-09-20T06:40:57.801Z,73.21
2022-09-20T06:43:24.358Z,72.93
2022-09-20T06:45:50.989Z,73.13
2022-09-20T06:48:19.200Z,73.21
2022-09-20T06:50:45.673Z,73.22
2022-09-20T06:53:18.226Z,73.21
2022-09-20T06:55:45.827Z,73.36
2022-09-20T06:58:12.756Z,73.45
2022-09-20T07:00:39.905Z,73.54
2022-09-20T07:03:07.090Z,73.68
2022-09-20T07:05:33.533Z,73.57
2022-09-20T07:08:01.386Z,73.61
2022-09-20T07:10:28.464Z,73.76
2022-09-20T07:13:02.410Z,73.83
2022-09-20T07:15:31.120Z,74.07
2022-09-20T07:17:57.655Z,74.67
2022-09-20T07:20:24.329Z,74.80
2022-09-20T07:22:51.643Z,75.29
2022-09-20T07:25:18.275Z,75.10
2022-09-20T07:27:46.440Z,75.17
2022-09-20T07:30:17.094Z,75.15
2022-09-20T07:32:43.766Z,75.61
2022-09-20T07:35:11.725Z,76.04
2022-09-20T07:37:41.303Z,75.91
2022-09-20T07:40:10.597Z,76.05
2022-09-20T07:42:37.215Z,75.93
2022-09-20T07:45:04.489Z,76.19
2022-09-20T07:47:35.426Z,76.25
2022-09-20T07:50:02.887Z,76.25
2022-09-20T07:52:29.502Z,76.37
2022-09-20T07:54:56.258Z,76.54
2022-09-20T07:57:23.032Z,76.13
2022-09-20T07:59:49.554Z,75.99
2022-09-20T08:02:16.853Z,76.30
2022-09-20T08:04:43.901Z,76.46
2022-09-20T08:07:10.765Z,76.68
2022-09-20T08:09:37.243Z,76.50
2022-09-20T08:14:52.452Z,76.51
2022-09-20T08:17:19.404Z,76.66
2022-09-20T08:19:46.080Z,76.67
2022-09-20T08:22:13.055Z,76.58
2022-09-20T08:24:39.607Z,76.62
2022-09-20T08:27:06.212Z,76.67
2022-09-20T08:29:32.813Z,76.88
2022-09-20T08:32:01.426Z,77.12
2022-09-20T08:34:28.183Z,77.13
2022-09-20T08:36:56.531Z,76.65
2022-09-20T08:42:24.072Z,76.66
2022-09-20T08:45:04.914Z,76.63
2022-09-20T08:47:35.644Z,77.08
2022-09-20T08:50:09.522Z,77.04
2022-09-20T08:52:39.791Z,77.00
2022-09-20T08:55:22.681Z,76.77
2022-09-20T08:57:51.960Z,76.81
2022-09-20T09:00:26.012Z,76.75
2022-09-20T09:02:57.065Z,76.70
2022-09-20T09:05:36.629Z,76.54
2022-09-20T09:08:09.210Z,76.45
2022-09-20T09:10:45.911Z,76.27
2022-09-20T09:13:30.010Z,75.81
2022-09-20T09:16:05.456Z,75.98
2022-09-20T09:18:35.924Z,75.97
2022-09-20T09:21:06.066Z,75.76
2022-09-20T09:23:41.199Z,75.75
2022-09-20T09:26:16.409Z,75.48
2022-09-20T09:28:44.022Z,75.79
2022-09-20T09:31:23.362Z,75.46
2022-09-20T09:33:49.967Z,75.46
2022-09-20T09:36:22.521Z,75.17
2022-09-20T09:38:49.390Z,75.04
2022-09-20T09:41:26.101Z,74.96
2022-09-20T09:44:09.904Z,74.43
2022-09-20T09:46:40.010Z,74.66
2022-09-20T09:49:22.699Z,73.98
2022-09-20T09:52:14.689Z,72.96
2022-09-20T09:54:46.942Z,73.11
2022-09-20T09:57:24.109Z,73.31
2022-09-20T10:00:01.938Z,73.02
2022-09-20T10:02:55.713Z,72.08
2022-09-20T10:05:29.524Z,71.82
2022-09-20T10:08:08.017Z,71.15
2022-09-20T10:11:00.741Z,71.22
2022-09-20T10:13:40.730Z,71.19
2022-09-20T10:16:21.026Z,70.84
2022-09-20T10:19:13.013Z,70.25
2022-09-20T10:21:48.698Z,69.87
2022-09-20T10:24:34.400Z,69.95
2022-09-20T10:27:27.072Z,69.51
2022-09-20T10:30:02.774Z,68.33
2022-09-20T10:33:06.875Z,68.86
2022-09-20T10:35:55.717Z,69.00
2022-09-20T10:38:30.111Z,69.10
2022-09-20T10:41:39.034Z,68.89
2022-09-20T10:44:16.641Z,68.85
2022-09-20T10:47:04.319Z,68.80
2022-09-20T10:49:50.377Z,68.88
2022-09-20T10:52:40.250Z,69.13
2022-09-20T10:55:07.198Z,69.22
2022-09-20T10:57:55.655Z,68.69
2022-09-20T11:00:24.622Z,68.89
2022-09-20T11:03:22.565Z,68.34
2022-09-20T11:05:57.888Z,68.61
2022-09-20T11:08:28.636Z,68.62
2022-09-20T11:10:56.950Z,68.60
2022-09-20T11:13:42.448Z,68.62
2022-09-20T11:16:16.725Z,68.42
2022-09-20T11:19:19.629Z,68.32
2022-09-20T11:21:52.722Z,67.78
2022-09-20T11:24:36.320Z,67.57
2022-09-20T11:27:14.151Z,67.34
2022-09-20T11:29:50.055Z,66.45
2022-09-20T11:32:24.570Z,66.31
2022-09-20T11:34:55.622Z,66.27
2022-09-20T11:37:25.295Z,66.53
2022-09-20T11:39:55.490Z,66.29
2022-09-20T11:42:34.150Z,66.24
2022-09-20T11:45:00.757Z,66.19
2022-09-20T11:47:55.572Z,65.97
2022-09-20T11:50:47.533Z,65.75
2022-09-20T11:53:42.984Z,65.93
2022-09-20T11:56:28.754Z,65.31
2022-09-20T11:58:59.565Z,65.88
2022-09-20T12:01:28.956Z,65.70
2022-09-20T12:04:20.959Z,65.84
2022-09-20T12:06:47.488Z,66.03
2022-09-20T12:09:33.212Z,65.88
2022-09-20T12:12:30.943Z,65.89
2022-09-20T12:15:00.265Z,66.24
2022-09-20T12:17:48.412Z,65.97
2022-09-20T12:20:34.616Z,65.19
2022-09-20T12:23:44.422Z,65.70
2022-09-20T12:26:13.313Z,65.82
2022-09-20T12:28:58.728Z,65.87
2022-09-20T12:31:26.127Z,64.67
2022-09-20T12:34:11.795Z,64.12
2022-09-20T12:36:40.312Z,64.46
2022-09-20T12:39:21.829Z,64.54
2022-09-20T12:41:59.036Z,64.96
2022-09-20T12:44:42.966Z,64.67
2022-09-20T12:47:12.254Z,64.99
2022-09-20T12:50:06.722Z,64.79
2022-09-20T12:52:57.698Z,65.17
2022-09-20T12:55:32.799Z,65.05
2022-09-20T12:58:09.866Z,64.78
2022-09-20T13:00:45.650Z,64.71
2022-09-20T13:03:15.365Z,64.87
2022-09-20T13:05:47.375Z,64.38
2022-09-20T13:08:27.129Z,62.87
2022-09-20T13:11:17.910Z,61.54
2022-09-20T13:13:51.978Z,62.24
2022-09-20T13:16:24.065Z,62.61
2022-09-20T13:19:01.008Z,62.40
2022-09-20T13:21:28.378Z,62.45
2022-09-20T13:23:55.339Z,62.49
2022-09-20T13:26:30.014Z,61.98
2022-09-20T13:28:59.061Z,61.77
2022-09-20T13:31:28.214Z,61.37
2022-09-20T13:33:55.077Z,61.31
2022-09-20T13:36:27.658Z,61.32
2022-09-20T13:38:56.818Z,61.64
2022-09-20T13:41:24.448Z,61.98
2022-09-20T13:43:51.424Z,62.03
2022-09-20T13:46:29.923Z,61.55
2022-09-20T13:49:20.623Z,61.36
2022-09-20T13:51:48.892Z,61.28
2022-09-20T13:54:31.731Z,61.17
2022-09-20T13:57:04.225Z,60.72
2022-09-20T13:59:35.535Z,60.75
2022-09-20T14:02:03.322Z,60.64
2022-09-20T14:04:31.600Z,60.56
2022-09-20T14:07:00.670Z,60.58
2022-09-20T14:09:35.863Z,59.22
2022-09-20T14:12:05.137Z,59.75
2022-09-20T14:14:33.089Z,59.99
2022-09-20T14:17:01.665Z,60.16
2022-09-20T14:19:37.030Z,59.80
2022-09-20T14:22:05.074Z,59.93
2022-09-20T14:24:37.088Z,59.28
2022-09-20T14:27:17.856Z,59.05
2022-09-20T14:29:44.297Z,59.36
2022-09-20T14:32:26.575Z,59.68
2022-09-20T14:34:58.777Z,59.71
2022-09-20T14:37:28.841Z,59.69
2022-09-20T14:39:57.619Z,59.45
2022-09-20T14:42:45.410Z,59.39
2022-09-20T14:45:30.789Z,59.32
2022-09-20T14:47:58.890Z,59.66
2022-09-20T14:50:31.579Z,59.75
2022-09-20T14:53:03.770Z,60.02
2022-09-20T14:55:36.435Z,60.14
2022-09-20T14:58:13.505Z,60.31
2022-09-20T15:00:49.684Z,60.21
2022-09-20T15:03:23.651Z,60.55
2022-09-20T15:05:50.890Z,60.75
2022-09-20T15:08:17.812Z,60.71
2022-09-20T15:10:44.358Z,60.53
2022-09-20T15:13:11.433Z,60.25
2022-09-20T15:15:38.120Z,60.04
2022-09-20T15:18:15.409Z,59.35
2022-09-20T15:20:41.914Z,59.41
2022-09-20T15:23:08.581Z,59.39
2022-09-20T15:25:35.112Z,59.41
2022-09-20T15:28:01.691Z,59.29
2022-09-20T15:30:28.556Z,59.46
2022-09-20T15:32:56.892Z,59.81
2022-09-20T15:35:26.178Z,59.68
2022-09-20T15:37:52.644Z,59.50
2022-09-20T15:40:19.289Z,59.49
2022-09-20T15:42:45.899Z,59.30
2022-09-20T15:45:12.540Z,58.85
2022-09-20T15:47:39.880Z,58.89
2022-09-20T15:50:10.699Z,58.89
2022-09-20T15:52:42.484Z,58.93
2022-09-20T15:55:09.256Z,58.64
2022-09-20T15:57:35.928Z,58.13
2022-09-20T16:00:02.837Z,58.09
2022-09-20T16:02:35.156Z,56.21
2022-09-20T16:05:01.997Z,56.67
2022-09-20T16:07:28.571Z,56.89
2022-09-20T16:09:56.091Z,57.11
2022-09-20T16:12:24.540Z,57.55
2022-09-20T16:14:51.455Z,57.70
2022-09-20T16:17:18.473Z,57.91
2022-09-20T16:19:48.038Z,57.78
2022-09-20T16:22:14.622Z,57.94
2022-09-20T16:24:41.124Z,58.20
2022-09-20T16:27:08.464Z,58.32
2022-09-20T16:29:35.077Z,58.34
2022-09-20T16:32:03.646Z,58.51
2022-09-20T16:34:32.862Z,58.50
2022-09-20T16:37:17.563Z,58.50
2022-09-20T16:39:44.345Z,58.66
2022-09-20T16:42:12.855Z,58.85
2022-09-20T16:44:42.631Z,58.77
2022-09-20T16:47:18.156Z,58.92
2022-09-20T16:49:47.297Z,59.03
2022-09-20T16:52:14.514Z,58.97
2022-09-20T16:54:41.023Z,59.03
2022-09-20T16:57:08.014Z,59.13
2022-09-20T16:59:34.535Z,59.22
2022-09-20T17:02:01.039Z,59.38
2022-09-20T17:04:27.584Z,59.52
2022-09-20T17:06:54.116Z,59.42
2022-09-20T17:09:20.953Z,59.80
2022-09-20T17:11:50.079Z,59.54
2022-09-20T17:14:19.024Z,59.46
2022-09-20T17:16:48.051Z,59.49
2022-09-20T17:19:19.443Z,59.56
2022-09-20T17:21:51.691Z,59.64
2022-09-20T17:24:22.093Z,59.54
2022-09-20T17:26:50.285Z,59.60
2022-09-20T17:29:18.227Z,60.01
2022-09-20T17:31:51.546Z,59.85
2022-09-20T17:34:21.803Z,59.88
2022-09-20T17:36:50.217Z,60.00
2022-09-20T17:39:16.843Z,60.06
2022-09-20T17:41:45.519Z,60.29
2022-09-20T17:44:12.419Z,60.31
2022-09-20T17:46:41.654Z,60.38
2022-09-20T17:49:14.913Z,60.39
2022-09-20T17:51:43.804Z,60.83
2022-09-20T17:54:13.771Z,60.62
2022-09-20T17:56:42.580Z,60.72
2022-09-20T17:59:10.609Z,60.90
2022-09-20T18:01:38.194Z,60.98
2022-09-20T18:04:06.216Z,61.02
2022-09-20T18:06:44.124Z,61.05
2022-09-20T18:09:15.176Z,61.23
2022-09-20T18:11:48.727Z,61.14
2022-09-20T18:14:17.280Z,61.46
2022-09-20T18:16:45.460Z,61.38
2022-09-20T18:19:13.096Z,61.48
2022-09-20T18:21:40.870Z,61.59
2022-09-20T18:24:10.160Z,61.79
2022-09-20T18:26:38.274Z,61.69
2022-09-20T18:29:09.414Z,61.71
2022-09-20T18:31:43.051Z,61.69
2022-09-20T18:34:12.628Z,61.80
2022-09-20T18:36:42.226Z,61.90
2022-09-20T18:39:08.839Z,62.04
2022-09-20T18:41:37.692Z,62.16
2022-09-20T18:44:07.591Z,62.11
2022-09-20T18:46:37.831Z,62.28
2022-09-20T18:49:07.147Z,62.32
2022-09-20T18:51:38.561Z,62.39
2022-09-20T18:54:06.201Z,62.39
2022-09-20T18:56:34.848Z,62.51
2022-09-20T18:59:07.812Z,62.52
2022-09-20T19:02:25.702Z,62.46
2022-09-20T19:05:11.892Z,62.67
2022-09-20T19:20:53.488Z,63.20
2022-09-20T19:24:03.051Z,63.13
2022-09-20T19:26:31.894Z,63.43
2022-09-20T19:29:00.468Z,63.48
2022-09-20T19:40:01.556Z,63.52
2022-09-20T19:47:01.605Z,63.41
2022-09-20T19:53:16.935Z,63.87
2022-09-20T19:55:47.772Z,63.85
2022-09-20T19:58:15.012Z,63.98
2022-09-20T20:09:18.827Z,63.99
2022-09-20T20:16:20.760Z,64.22
2022-09-20T20:19:08.520Z,64.20
2022-09-20T20:21:52.075Z,64.47
2022-09-20T20:24:35.072Z,64.47
2022-09-20T20:27:03.773Z,64.45
2022-09-20T20:29:30.904Z,64.39
2022-09-20T20:31:57.717Z,64.67
2022-09-20T20:34:26.578Z,64.75
2022-09-20T20:37:00.801Z,64.61
2022-09-20T20:39:29.652Z,64.72
2022-09-20T20:42:00.243Z,64.72
2022-09-20T20:44:29.987Z,64.61
2022-09-20T20:46:56.817Z,64.77
2022-09-20T20:49:23.587Z,64.78
2022-09-20T20:51:50.098Z,64.77
2022-09-20T20:54:16.905Z,64.88
2022-09-20T21:00:48.580Z,64.85
2022-09-20T21:03:15.053Z,64.67
2022-09-20T21:05:41.527Z,64.78
2022-09-20T21:12:19.972Z,64.97
2022-09-20T21:14:46.538Z,64.91
2022-09-20T21:17:13.103Z,65.07
2022-09-20T21:19:40.081Z,64.99
2022-09-20T21:22:06.610Z,65.18
2022-09-20T21:24:33.151Z,64.95
2022-09-20T21:26:59.679Z,65.08
2022-09-20T21:29:34.489Z,64.94
2022-09-20T21:32:01.221Z,65.19
2022-09-20T21:34:27.717Z,65.25
2022-09-20T21:36:57.336Z,65.10
2022-09-20T21:39:28.474Z,65.22
2022-09-20T21:41:59.814Z,65.00
2022-09-20T21:44:30.971Z,65.23
2022-09-20T21:47:02.014Z,65.26
2022-09-20T21:49:34.613Z,65.27
2022-09-20T21:52:06.047Z,65.30
2022-09-20T21:54:36.318Z,65.34
2022-09-20T21:57:05.989Z,65.29
2022-09-20T21:59:34.709Z,65.23
2022-09-20T22:02:01.204Z,65.05
2022-09-20T22:04:29.129Z,65.42
2022-09-20T22:06:55.753Z,65.29
2022-09-20T22:09:24.059Z,65.29
2022-09-20T22:11:50.636Z,65.44
2022-09-20T22:14:19.387Z,65.42
2022-09-20T22:16:47.925Z,65.46
2022-09-20T22:19:17.003Z,65.38
2022-09-20T22:21:46.190Z,65.74
2022-09-20T22:24:14.841Z,65.28
2022-09-20T22:26:47.254Z,65.31
2022-09-20T22:29:14.777Z,65.39
2022-09-20T22:31:47.228Z,65.37
2022-09-20T22:34:16.840Z,65.60
2022-09-20T22:36:43.695Z,65.57
2022-09-20T22:39:11.298Z,65.54
2022-09-20T22:41:39.372Z,65.55
2022-09-20T22:44:06.219Z,65.48
2022-09-20T22:46:33.602Z,65.44
2022-09-20T22:49:00.397Z,65.60
2022-09-20T22:51:30.768Z,65.53
2022-09-20T22:53:57.418Z,65.52
2022-09-20T22:56:31.577Z,65.60
2022-09-20T22:59:00.212Z,65.59
2022-09-20T23:01:31.666Z,65.72
2022-09-20T23:04:00.894Z,65.81
2022-09-20T23:06:33.375Z,65.79
2022-09-20T23:09:02.100Z,65.74
2022-09-20T23:11:29.790Z,65.78
2022-09-20T23:14:01.467Z,65.67
2022-09-20T23:16:30.317Z,65.69
2022-09-20T23:18:58.909Z,65.81
2022-09-20T23:21:25.932Z,65.72
2022-09-20T23:23:54.615Z,65.71
2022-09-20T23:26:22.221Z,65.73
2022-09-20T23:28:57.247Z,65.65
2022-09-20T23:31:24.912Z,65.94
2022-09-20T23:33:57.687Z,65.79
2022-09-20T23:36:25.734Z,65.77
2022-09-20T23:38:52.325Z,66.08
2022-09-20T23:41:21.037Z,65.88
2022-09-20T23:43:48.102Z,65.89
2022-09-20T23:46:17.453Z,65.82
2022-09-20T23:48:44.806Z,65.91
2022-09-20T23:51:14.003Z,65.85
2022-09-20T23:53:42.546Z,65.92
2022-09-20T23:56:10.237Z,66.02
2022-09-20T23:58:38.673Z,66.04
